sensor_id;sensor_type;location;lat;lon;timestamp;temperature;humidity
59505;DHT22;45321;53.200;5.814;2022-12-18T00:01:02;-3275.30;89.20
59505;DHT22;45321;53.200;5.814;2022-12-18T00:03:33;-3275.20;89.00
59505;DHT22;45321;53.200;5.814;2022-12-18T00:05:59;-3275.20;89.00
59505;DHT22;45321;53.200;5.814;2022-12-18T00:08:24;-3275.10;89.00
59505;DHT22;45321;53.200;5.814;2022-12-18T00:10:50;-3275.10;89.00
59505;DHT22;45321;53.200;5.814;2022-12-18T00:13:16;-3275.10;89.20
59505;DHT22;45321;53.200;5.814;2022-12-18T00:15:41;-3275.10;89.20
59505;DHT22;45321;53.200;5.814;2022-12-18T00:18:07;-3275.10;89.10
59505;DHT22;45321;53.200;5.814;2022-12-18T00:20:37;-3275.10;89.20
59505;DHT22;45321;53.200;5.814;2022-12-18T00:23:04;-3275.10;89.20
59505;DHT22;45321;53.200;5.814;2022-12-18T00:25:33;-3275.00;89.10
59505;DHT22;45321;53.200;5.814;2022-12-18T00:27:58;-3275.00;89.00
59505;DHT22;45321;53.200;5.814;2022-12-18T00:30:24;-3275.00;89.10
59505;DHT22;45321;53.200;5.814;2022-12-18T00:32:50;-3275.00;89.20
59505;DHT22;45321;53.200;5.814;2022-12-18T00:35:15;-3275.00;89.00
59505;DHT22;45321;53.200;5.814;2022-12-18T00:37:41;-3275.00;89.30
59505;DHT22;45321;53.200;5.814;2022-12-18T00:40:07;-3275.00;89.20
59505;DHT22;45321;53.200;5.814;2022-12-18T00:42:33;-3275.00;89.20
59505;DHT22;45321;53.200;5.814;2022-12-18T00:45:17;-3275.00;89.20
59505;DHT22;45321;53.200;5.814;2022-12-18T00:47:43;-3274.90;89.10
59505;DHT22;45321;53.200;5.814;2022-12-18T00:50:09;-3274.90;89.10
59505;DHT22;45321;53.200;5.814;2022-12-18T00:52:35;-3274.90;89.10
59505;DHT22;45321;53.200;5.814;2022-12-18T00:55:00;-3274.90;89.10
59505;DHT22;45321;53.200;5.814;2022-12-18T00:57:26;-3274.90;89.00
59505;DHT22;45321;53.200;5.814;2022-12-18T00:59:52;-3275.00;89.10
59505;DHT22;45321;53.200;5.814;2022-12-18T01:02:17;-3275.00;89.10
59505;DHT22;45321;53.200;5.814;2022-12-18T01:04:43;-3275.00;89.10
59505;DHT22;45321;53.200;5.814;2022-12-18T01:07:09;-3275.00;89.00
59505;DHT22;45321;53.200;5.814;2022-12-18T01:09:34;-3275.00;89.00
59505;DHT22;45321;53.200;5.814;2022-12-18T01:12:00;-3275.00;88.80
59505;DHT22;45321;53.200;5.814;2022-12-18T01:14:26;-3275.00;88.80
59505;DHT22;45321;53.200;5.814;2022-12-18T01:16:52;-3275.00;89.00
59505;DHT22;45321;53.200;5.814;2022-12-18T01:19:17;-3275.00;89.00
59505;DHT22;45321;53.200;5.814;2022-12-18T01:21:43;-3275.00;88.90
59505;DHT22;45321;53.200;5.814;2022-12-18T01:24:10;-3275.00;88.80
59505;DHT22;45321;53.200;5.814;2022-12-18T01:26:36;-3275.00;88.80
59505;DHT22;45321;53.200;5.814;2022-12-18T01:29:02;-3274.90;88.80
59505;DHT22;45321;53.200;5.814;2022-12-18T01:31:31;-3274.90;88.90
59505;DHT22;45321;53.200;5.814;2022-12-18T01:33:57;-3275.00;88.80
59505;DHT22;45321;53.200;5.814;2022-12-18T01:36:34;-3275.00;88.60
59505;DHT22;45321;53.200;5.814;2022-12-18T01:39:11;-3274.90;88.60
59505;DHT22;45321;53.200;5.814;2022-12-18T01:41:37;-3274.90;88.60
59505;DHT22;45321;53.200;5.814;2022-12-18T01:47:28;-3274.90;88.40
59505;DHT22;45321;53.200;5.814;2022-12-18T01:49:57;-3274.90;88.60
59505;DHT22;45321;53.200;5.814;2022-12-18T01:52:26;-3274.90;88.50
59505;DHT22;45321;53.200;5.814;2022-12-18T01:54:54;-3274.80;88.50
59505;DHT22;45321;53.200;5.814;2022-12-18T01:57:21;-3274.90;88.50
59505;DHT22;45321;53.200;5.814;2022-12-18T01:59:51;-3274.90;88.40
59505;DHT22;45321;53.200;5.814;2022-12-18T02:02:18;-3274.80;88.30
59505;DHT22;45321;53.200;5.814;2022-12-18T02:04:45;-3274.80;88.30
59505;DHT22;45321;53.200;5.814;2022-12-18T02:07:20;-3274.70;88.30
59505;DHT22;45321;53.200;5.814;2022-12-18T02:10:13;-3274.70;88.70
59505;DHT22;45321;53.200;5.814;2022-12-18T02:18:06;-3274.70;88.70
59505;DHT22;45321;53.200;5.814;2022-12-18T02:20:44;-3274.70;88.50
59505;DHT22;45321;53.200;5.814;2022-12-18T02:26:26;-3274.70;88.40
59505;DHT22;45321;53.200;5.814;2022-12-18T02:28:54;-3274.60;88.40
59505;DHT22;45321;53.200;5.814;2022-12-18T02:31:24;-3274.60;88.50
59505;DHT22;45321;53.200;5.814;2022-12-18T02:33:54;-3274.60;88.50
59505;DHT22;45321;53.200;5.814;2022-12-18T02:36:22;-3274.60;88.40
59505;DHT22;45321;53.200;5.814;2022-12-18T02:38:49;-3274.50;88.40
59505;DHT22;45321;53.200;5.814;2022-12-18T02:41:16;-3274.50;88.60
59505;DHT22;45321;53.200;5.814;2022-12-18T02:43:47;-3274.50;88.50
59505;DHT22;45321;53.200;5.814;2022-12-18T02:46:37;-3274.50;88.20
59505;DHT22;45321;53.200;5.814;2022-12-18T02:49:26;-3274.50;88.30
59505;DHT22;45321;53.200;5.814;2022-12-18T03:02:34;-3274.30;88.40
59505;DHT22;45321;53.200;5.814;2022-12-18T03:07:38;-3274.20;88.40
59505;DHT22;45321;53.200;5.814;2022-12-18T03:10:07;-3274.20;88.40
59505;DHT22;45321;53.200;5.814;2022-12-18T03:12:37;-3274.20;88.40
59505;DHT22;45321;53.200;5.814;2022-12-18T03:17:33;-3274.10;88.20
59505;DHT22;45321;53.200;5.814;2022-12-18T03:20:05;-3274.10;88.60
59505;DHT22;45321;53.200;5.814;2022-12-18T03:22:33;-3274.10;88.30
59505;DHT22;45321;53.200;5.814;2022-12-18T03:25:03;-3274.00;88.30
59505;DHT22;45321;53.200;5.814;2022-12-18T03:27:32;-3274.00;88.30
59505;DHT22;45321;53.200;5.814;2022-12-18T03:32:31;-3274.00;88.20
59505;DHT22;45321;53.200;5.814;2022-12-18T03:35:02;-3274.00;88.10
59505;DHT22;45321;53.200;5.814;2022-12-18T03:37:28;-3274.00;88.10
59505;DHT22;45321;53.200;5.814;2022-12-18T03:39:54;-3274.00;88.20
59505;DHT22;45321;53.200;5.814;2022-12-18T03:42:28;-3274.00;88.20
59505;DHT22;45321;53.200;5.814;2022-12-18T03:44:57;-3274.00;88.00
59505;DHT22;45321;53.200;5.814;2022-12-18T03:47:29;-3274.00;88.00
59505;DHT22;45321;53.200;5.814;2022-12-18T03:50:16;-3273.90;88.00
59505;DHT22;45321;53.200;5.814;2022-12-18T03:55:33;-3273.90;88.00
59505;DHT22;45321;53.200;5.814;2022-12-18T03:58:02;-3274.00;88.10
59505;DHT22;45321;53.200;5.814;2022-12-18T04:00:29;-3273.90;88.10
59505;DHT22;45321;53.200;5.814;2022-12-18T04:02:57;-3273.90;88.00
59505;DHT22;45321;53.200;5.814;2022-12-18T04:05:27;-3273.90;88.00
59505;DHT22;45321;53.200;5.814;2022-12-18T04:07:55;-3273.90;88.00
59505;DHT22;45321;53.200;5.814;2022-12-18T04:10:22;-3273.80;88.00
59505;DHT22;45321;53.200;5.814;2022-12-18T04:12:48;-3273.80;88.10
59505;DHT22;45321;53.200;5.814;2022-12-18T04:15:13;-3273.90;88.10
59505;DHT22;45321;53.200;5.814;2022-12-18T04:17:46;-3273.80;88.00
59505;DHT22;45321;53.200;5.814;2022-12-18T04:20:12;-3273.80;87.90
59505;DHT22;45321;53.200;5.814;2022-12-18T04:22:38;-3273.80;87.90
59505;DHT22;45321;53.200;5.814;2022-12-18T04:25:04;-3273.80;87.90
59505;DHT22;45321;53.200;5.814;2022-12-18T04:27:30;-3273.80;88.00
59505;DHT22;45321;53.200;5.814;2022-12-18T04:29:55;-3273.70;87.80
59505;DHT22;45321;53.200;5.814;2022-12-18T04:32:21;-3273.70;88.00
59505;DHT22;45321;53.200;5.814;2022-12-18T04:34:47;-3273.70;87.80
59505;DHT22;45321;53.200;5.814;2022-12-18T04:37:13;-3273.70;87.80
59505;DHT22;45321;53.200;5.814;2022-12-18T04:39:39;-3273.80;87.70
59505;DHT22;45321;53.200;5.814;2022-12-18T04:42:04;-3273.70;87.60
59505;DHT22;45321;53.200;5.814;2022-12-18T04:44:30;-3273.70;87.60
59505;DHT22;45321;53.200;5.814;2022-12-18T04:46:58;-3273.70;87.50
59505;DHT22;45321;53.200;5.814;2022-12-18T04:49:24;-3273.70;87.80
59505;DHT22;45321;53.200;5.814;2022-12-18T04:51:49;-3273.70;87.70
59505;DHT22;45321;53.200;5.814;2022-12-18T04:54:15;-3273.70;87.30
59505;DHT22;45321;53.200;5.814;2022-12-18T04:56:41;-3273.70;87.40
59505;DHT22;45321;53.200;5.814;2022-12-18T04:59:07;-3273.70;87.30
59505;DHT22;45321;53.200;5.814;2022-12-18T05:01:32;-3273.60;87.10
59505;DHT22;45321;53.200;5.814;2022-12-18T05:04:01;-3273.60;87.00
59505;DHT22;45321;53.200;5.814;2022-12-18T05:06:28;-3273.60;87.00
59505;DHT22;45321;53.200;5.814;2022-12-18T05:08:53;-3273.50;87.20
59505;DHT22;45321;53.200;5.814;2022-12-18T05:11:19;-3273.50;87.00
59505;DHT22;45321;53.200;5.814;2022-12-18T05:13:46;-3273.50;87.00
59505;DHT22;45321;53.200;5.814;2022-12-18T05:16:12;-3273.50;86.90
59505;DHT22;45321;53.200;5.814;2022-12-18T05:18:39;-3273.40;86.70
59505;DHT22;45321;53.200;5.814;2022-12-18T05:21:05;-3273.40;86.70
59505;DHT22;45321;53.200;5.814;2022-12-18T05:23:35;-3273.40;86.60
59505;DHT22;45321;53.200;5.814;2022-12-18T05:26:04;-3273.30;86.60
59505;DHT22;45321;53.200;5.814;2022-12-18T05:28:31;-3273.40;86.70
59505;DHT22;45321;53.200;5.814;2022-12-18T05:30:59;-3273.30;86.60
59505;DHT22;45321;53.200;5.814;2022-12-18T05:33:27;-3273.30;86.40
59505;DHT22;45321;53.200;5.814;2022-12-18T05:35:59;-3273.30;86.40
59505;DHT22;45321;53.200;5.814;2022-12-18T05:38:26;-3273.30;86.40
59505;DHT22;45321;53.200;5.814;2022-12-18T05:40:52;-3273.40;86.50
59505;DHT22;45321;53.200;5.814;2022-12-18T05:43:19;-3273.40;86.40
59505;DHT22;45321;53.200;5.814;2022-12-18T05:45:46;-3273.40;86.20
59505;DHT22;45321;53.200;5.814;2022-12-18T05:48:12;-3273.40;86.30
59505;DHT22;45321;53.200;5.814;2022-12-18T05:50:39;-3273.50;86.20
59505;DHT22;45321;53.200;5.814;2022-12-18T05:53:06;-3273.50;86.10
59505;DHT22;45321;53.200;5.814;2022-12-18T05:55:36;-3273.50;85.90
59505;DHT22;45321;53.200;5.814;2022-12-18T05:58:03;-3273.40;85.70
59505;DHT22;45321;53.200;5.814;2022-12-18T06:00:30;-3273.40;85.60
59505;DHT22;45321;53.200;5.814;2022-12-18T06:02:56;-3273.30;85.50
59505;DHT22;45321;53.200;5.814;2022-12-18T06:05:21;-3273.30;85.20
59505;DHT22;45321;53.200;5.814;2022-12-18T06:07:47;-3273.30;85.40
59505;DHT22;45321;53.200;5.814;2022-12-18T06:10:13;-3273.20;85.30
59505;DHT22;45321;53.200;5.814;2022-12-18T06:12:38;-3273.20;85.40
59505;DHT22;45321;53.200;5.814;2022-12-18T06:15:05;-3273.20;85.50
59505;DHT22;45321;53.200;5.814;2022-12-18T06:17:32;-3273.20;85.50
59505;DHT22;45321;53.200;5.814;2022-12-18T06:19:58;-3273.20;85.40
59505;DHT22;45321;53.200;5.814;2022-12-18T06:22:24;-3273.10;85.30
59505;DHT22;45321;53.200;5.814;2022-12-18T06:24:50;-3273.10;85.30
59505;DHT22;45321;53.200;5.814;2022-12-18T06:27:16;-3273.10;85.40
59505;DHT22;45321;53.200;5.814;2022-12-18T06:29:42;-3273.10;85.80
59505;DHT22;45321;53.200;5.814;2022-12-18T06:32:08;-3273.10;85.50
59505;DHT22;45321;53.200;5.814;2022-12-18T06:34:34;-3273.10;85.60
59505;DHT22;45321;53.200;5.814;2022-12-18T06:37:02;-3273.10;85.30
59505;DHT22;45321;53.200;5.814;2022-12-18T06:39:28;-3273.10;85.70
59505;DHT22;45321;53.200;5.814;2022-12-18T06:41:53;-3273.10;85.40
59505;DHT22;45321;53.200;5.814;2022-12-18T06:44:19;-3273.00;85.00
59505;DHT22;45321;53.200;5.814;2022-12-18T06:46:45;-3273.00;85.00
59505;DHT22;45321;53.200;5.814;2022-12-18T06:49:11;-3272.90;85.50
59505;DHT22;45321;53.200;5.814;2022-12-18T06:51:37;-3272.90;85.50
59505;DHT22;45321;53.200;5.814;2022-12-18T06:54:03;-3272.90;85.30
59505;DHT22;45321;53.200;5.814;2022-12-18T06:56:29;-3272.90;85.10
59505;DHT22;45321;53.200;5.814;2022-12-18T06:58:54;-3272.80;84.90
59505;DHT22;45321;53.200;5.814;2022-12-18T07:01:21;-3272.80;85.10
59505;DHT22;45321;53.200;5.814;2022-12-18T07:03:51;-3272.80;84.90
59505;DHT22;45321;53.200;5.814;2022-12-18T07:06:19;-3272.80;84.90
59505;DHT22;45321;53.200;5.814;2022-12-18T07:08:46;-3272.80;85.10
59505;DHT22;45321;53.200;5.814;2022-12-18T07:11:12;-3272.80;85.00
59505;DHT22;45321;53.200;5.814;2022-12-18T07:13:38;-3272.80;84.90
59505;DHT22;45321;53.200;5.814;2022-12-18T07:16:15;-3272.80;84.80
59505;DHT22;45321;53.200;5.814;2022-12-18T07:18:42;-3272.80;84.80
59505;DHT22;45321;53.200;5.814;2022-12-18T07:21:10;-3272.80;84.90
59505;DHT22;45321;53.200;5.814;2022-12-18T07:23:39;-3272.80;84.70
59505;DHT22;45321;53.200;5.814;2022-12-18T07:26:07;-3272.80;84.50
59505;DHT22;45321;53.200;5.814;2022-12-18T07:28:33;-3272.80;84.50
59505;DHT22;45321;53.200;5.814;2022-12-18T07:31:03;-3272.80;84.40
59505;DHT22;45321;53.200;5.814;2022-12-18T07:33:29;-3272.80;84.30
59505;DHT22;45321;53.200;5.814;2022-12-18T07:35:55;-3272.80;84.50
59505;DHT22;45321;53.200;5.814;2022-12-18T07:38:21;-3272.80;84.40
59505;DHT22;45321;53.200;5.814;2022-12-18T07:40:47;-3272.80;84.60
59505;DHT22;45321;53.200;5.814;2022-12-18T07:43:12;-3272.80;84.50
59505;DHT22;45321;53.200;5.814;2022-12-18T07:45:38;-3272.80;84.30
59505;DHT22;45321;53.200;5.814;2022-12-18T07:48:04;-3272.80;84.40
59505;DHT22;45321;53.200;5.814;2022-12-18T07:50:30;-3272.80;84.30
59505;DHT22;45321;53.200;5.814;2022-12-18T07:52:56;-3272.80;84.20
59505;DHT22;45321;53.200;5.814;2022-12-18T07:55:21;-3272.80;84.20
59505;DHT22;45321;53.200;5.814;2022-12-18T07:57:47;-3272.80;84.30
59505;DHT22;45321;53.200;5.814;2022-12-18T08:00:13;-3272.80;84.30
59505;DHT22;45321;53.200;5.814;2022-12-18T08:02:39;-3272.80;84.10
59505;DHT22;45321;53.200;5.814;2022-12-18T08:05:05;-3272.80;84.00
59505;DHT22;45321;53.200;5.814;2022-12-18T08:07:31;-3272.80;83.70
59505;DHT22;45321;53.200;5.814;2022-12-18T08:09:57;-3272.80;84.00
59505;DHT22;45321;53.200;5.814;2022-12-18T08:12:22;-3272.80;84.10
59505;DHT22;45321;53.200;5.814;2022-12-18T08:14:48;-3272.80;83.90
59505;DHT22;45321;53.200;5.814;2022-12-18T08:17:13;-3272.80;84.10
59505;DHT22;45321;53.200;5.814;2022-12-18T08:19:39;-3272.80;84.40
59505;DHT22;45321;53.200;5.814;2022-12-18T08:22:05;-3272.80;84.20
59505;DHT22;45321;53.200;5.814;2022-12-18T08:24:31;-3272.90;84.20
59505;DHT22;45321;53.200;5.814;2022-12-18T08:26:56;-3272.90;84.20
59505;DHT22;45321;53.200;5.814;2022-12-18T08:29:22;-3272.90;84.30
59505;DHT22;45321;53.200;5.814;2022-12-18T08:31:48;-3273.00;84.30
59505;DHT22;45321;53.200;5.814;2022-12-18T08:34:14;-3273.00;84.30
59505;DHT22;45321;53.200;5.814;2022-12-18T08:36:40;-3273.10;84.10
59505;DHT22;45321;53.200;5.814;2022-12-18T08:39:06;-3273.10;84.10
59505;DHT22;45321;53.200;5.814;2022-12-18T08:41:31;-3273.10;84.10
59505;DHT22;45321;53.200;5.814;2022-12-18T08:43:57;-3273.20;83.90
59505;DHT22;45321;53.200;5.814;2022-12-18T08:46:43;-3273.20;84.10
59505;DHT22;45321;53.200;5.814;2022-12-18T08:49:09;-3273.20;83.90
59505;DHT22;45321;53.200;5.814;2022-12-18T08:51:35;-3273.20;83.70
59505;DHT22;45321;53.200;5.814;2022-12-18T08:54:01;-3273.30;83.80
59505;DHT22;45321;53.200;5.814;2022-12-18T08:56:30;-3273.30;84.00
59505;DHT22;45321;53.200;5.814;2022-12-18T08:58:57;-3273.30;84.20
59505;DHT22;45321;53.200;5.814;2022-12-18T09:01:23;-3273.40;84.00
59505;DHT22;45321;53.200;5.814;2022-12-18T09:03:50;-3273.50;83.90
59505;DHT22;45321;53.200;5.814;2022-12-18T09:06:17;-3273.50;83.90
59505;DHT22;45321;53.200;5.814;2022-12-18T09:08:44;-3273.60;84.10
59505;DHT22;45321;53.200;5.814;2022-12-18T09:11:15;-3273.60;84.10
59505;DHT22;45321;53.200;5.814;2022-12-18T09:13:44;-3273.70;84.00
59505;DHT22;45321;53.200;5.814;2022-12-18T09:16:09;-3273.70;83.90
59505;DHT22;45321;53.200;5.814;2022-12-18T09:18:35;-3273.80;84.00
59505;DHT22;45321;53.200;5.814;2022-12-18T09:21:17;-3273.90;83.90
59505;DHT22;45321;53.200;5.814;2022-12-18T09:23:43;-3274.00;83.90
59505;DHT22;45321;53.200;5.814;2022-12-18T09:26:09;-3274.00;83.70
59505;DHT22;45321;53.200;5.814;2022-12-18T09:28:34;-3274.10;83.70
59505;DHT22;45321;53.200;5.814;2022-12-18T09:31:05;-3274.20;83.50
59505;DHT22;45321;53.200;5.814;2022-12-18T09:33:32;-3274.20;83.60
59505;DHT22;45321;53.200;5.814;2022-12-18T09:36:01;-3274.30;83.30
59505;DHT22;45321;53.200;5.814;2022-12-18T09:38:27;-3274.30;83.50
59505;DHT22;45321;53.200;5.814;2022-12-18T09:41:17;-3274.40;83.00
59505;DHT22;45321;53.200;5.814;2022-12-18T09:43:51;-3274.40;83.10
59505;DHT22;45321;53.200;5.814;2022-12-18T09:46:36;-3274.40;83.00
59505;DHT22;45321;53.200;5.814;2022-12-18T09:49:09;-3274.50;82.80
59505;DHT22;45321;53.200;5.814;2022-12-18T09:52:00;-3274.50;83.00
59505;DHT22;45321;53.200;5.814;2022-12-18T09:54:41;-3274.50;83.00
59505;DHT22;45321;53.200;5.814;2022-12-18T09:57:14;-3274.60;82.90
59505;DHT22;45321;53.200;5.814;2022-12-18T09:59:42;-3274.70;83.20
59505;DHT22;45321;53.200;5.814;2022-12-18T10:02:18;-3274.70;82.60
59505;DHT22;45321;53.200;5.814;2022-12-18T10:05:05;-3274.80;82.70
59505;DHT22;45321;53.200;5.814;2022-12-18T10:13:07;-3274.90;82.40
59505;DHT22;45321;53.200;5.814;2022-12-18T10:21:15;-3275.20;82.30
59505;DHT22;45321;53.200;5.814;2022-12-18T10:26:25;-3275.30;81.40
59505;DHT22;45321;53.200;5.814;2022-12-18T10:28:51;-3275.30;81.30
59505;DHT22;45321;53.200;5.814;2022-12-18T10:31:21;-3275.40;81.60
59505;DHT22;45321;53.200;5.814;2022-12-18T10:33:47;-3275.50;81.20
59505;DHT22;45321;53.200;5.814;2022-12-18T10:36:13;-3275.50;80.70
59505;DHT22;45321;53.200;5.814;2022-12-18T10:38:40;-3275.60;81.20
59505;DHT22;45321;53.200;5.814;2022-12-18T10:43:51;-3275.70;80.40
59505;DHT22;45321;53.200;5.814;2022-12-18T10:46:34;-3275.70;80.10
59505;DHT22;45321;53.200;5.814;2022-12-18T10:49:00;-3275.80;80.10
59505;DHT22;45321;53.200;5.814;2022-12-18T10:53:59;-3275.80;79.30
59505;DHT22;45321;53.200;5.814;2022-12-18T10:56:27;-3275.80;79.00
59505;DHT22;45321;53.200;5.814;2022-12-18T10:59:03;-3275.80;78.90
59505;DHT22;45321;53.200;5.814;2022-12-18T11:01:53;-3275.90;79.10
59505;DHT22;45321;53.200;5.814;2022-12-18T11:04:27;-3275.90;78.90
59505;DHT22;45321;53.200;5.814;2022-12-18T11:07:00;-3276.00;79.20
59505;DHT22;45321;53.200;5.814;2022-12-18T11:09:59;-3276.00;79.30
59505;DHT22;45321;53.200;5.814;2022-12-18T11:12:25;-3276.10;79.00
59505;DHT22;45321;53.200;5.814;2022-12-18T11:14:54;-3276.10;78.70
59505;DHT22;45321;53.200;5.814;2022-12-18T11:17:32;-3276.20;78.30
59505;DHT22;45321;53.200;5.814;2022-12-18T11:20:33;-3276.20;78.70
59505;DHT22;45321;53.200;5.814;2022-12-18T11:22:57;-3276.20;78.00
59505;DHT22;45321;53.200;5.814;2022-12-18T11:25:23;-3276.30;78.00
59505;DHT22;45321;53.200;5.814;2022-12-18T11:27:53;-3276.30;77.70
59505;DHT22;45321;53.200;5.814;2022-12-18T11:33:06;-3276.30;76.90
59505;DHT22;45321;53.200;5.814;2022-12-18T11:38:26;-3276.30;75.80
59505;DHT22;45321;53.200;5.814;2022-12-18T11:43:54;-3276.40;77.50
59505;DHT22;45321;53.200;5.814;2022-12-18T11:46:32;-3276.50;78.00
59505;DHT22;45321;53.200;5.814;2022-12-18T11:49:11;-3276.40;76.30
59505;DHT22;45321;53.200;5.814;2022-12-18T11:52:30;-3276.50;76.50
59505;DHT22;45321;53.200;5.814;2022-12-18T11:54:27;-3276.50;76.00
59505;DHT22;45321;53.200;5.814;2022-12-18T12:05:18;-3276.40;75.00
59505;DHT22;45321;53.200;5.814;2022-12-18T12:08:09;-3276.40;75.10
59505;DHT22;45321;53.200;5.814;2022-12-18T12:11:22;-3276.40;75.30
59505;DHT22;45321;53.200;5.814;2022-12-18T12:16:46;-3276.40;75.80
59505;DHT22;45321;53.200;5.814;2022-12-18T12:22:04;-3276.50;76.50
59505;DHT22;45321;53.200;5.814;2022-12-18T12:32:19;-3276.60;75.30
59505;DHT22;45321;53.200;5.814;2022-12-18T12:35:08;-3276.70;75.20
59505;DHT22;45321;53.200;5.814;2022-12-18T12:40:20;-3276.70;74.60
59505;DHT22;45321;53.200;5.814;2022-12-18T12:42:52;-3276.70;74.80
59505;DHT22;45321;53.200;5.814;2022-12-18T12:45:57;0.00;74.80
59505;DHT22;45321;53.200;5.814;2022-12-18T12:51:12;0.00;74.50
59505;DHT22;45321;53.200;5.814;2022-12-18T12:53:42;0.00;74.10
59505;DHT22;45321;53.200;5.814;2022-12-18T12:56:11;0.00;74.00
59505;DHT22;45321;53.200;5.814;2022-12-18T12:58:58;0.00;73.90
59505;DHT22;45321;53.200;5.814;2022-12-18T13:04:44;0.00;73.70
59505;DHT22;45321;53.200;5.814;2022-12-18T13:07:27;0.00;73.90
59505;DHT22;45321;53.200;5.814;2022-12-18T13:10:13;0.00;73.80
59505;DHT22;45321;53.200;5.814;2022-12-18T13:18:22;0.00;73.60
59505;DHT22;45321;53.200;5.814;2022-12-18T13:25:59;0.00;73.90
59505;DHT22;45321;53.200;5.814;2022-12-18T13:31:14;0.00;73.90
59505;DHT22;45321;53.200;5.814;2022-12-18T13:33:46;0.00;74.60
59505;DHT22;45321;53.200;5.814;2022-12-18T13:36:27;0.00;74.40
59505;DHT22;45321;53.200;5.814;2022-12-18T13:41:51;0.00;74.10
59505;DHT22;45321;53.200;5.814;2022-12-18T13:44:33;0.10;74.40
59505;DHT22;45321;53.200;5.814;2022-12-18T13:47:02;0.10;74.40
59505;DHT22;45321;53.200;5.814;2022-12-18T13:49:43;0.10;74.50
59505;DHT22;45321;53.200;5.814;2022-12-18T13:52:21;0.20;74.60
59505;DHT22;45321;53.200;5.814;2022-12-18T13:54:54;0.10;74.20
59505;DHT22;45321;53.200;5.814;2022-12-18T13:57:29;0.10;74.30
59505;DHT22;45321;53.200;5.814;2022-12-18T13:59:57;0.10;74.40
59505;DHT22;45321;53.200;5.814;2022-12-18T14:02:28;0.10;74.70
59505;DHT22;45321;53.200;5.814;2022-12-18T14:04:54;0.10;74.60
59505;DHT22;45321;53.200;5.814;2022-12-18T14:07:25;0.10;74.50
59505;DHT22;45321;53.200;5.814;2022-12-18T14:12:26;0.10;74.90
59505;DHT22;45321;53.200;5.814;2022-12-18T14:17:46;0.10;75.10
59505;DHT22;45321;53.200;5.814;2022-12-18T14:20:15;0.10;75.00
59505;DHT22;45321;53.200;5.814;2022-12-18T14:22:47;0.10;75.10
59505;DHT22;45321;53.200;5.814;2022-12-18T14:25:23;0.10;75.30
59505;DHT22;45321;53.200;5.814;2022-12-18T14:28:07;0.10;75.30
59505;DHT22;45321;53.200;5.814;2022-12-18T14:30:41;0.10;75.60
59505;DHT22;45321;53.200;5.814;2022-12-18T14:33:25;0.10;75.80
59505;DHT22;45321;53.200;5.814;2022-12-18T14:43:28;0.00;75.50
59505;DHT22;45321;53.200;5.814;2022-12-18T14:45:55;0.00;75.50
59505;DHT22;45321;53.200;5.814;2022-12-18T14:53:33;0.00;75.80
59505;DHT22;45321;53.200;5.814;2022-12-18T14:56:00;0.00;75.50
59505;DHT22;45321;53.200;5.814;2022-12-18T14:58:26;0.00;75.30
59505;DHT22;45321;53.200;5.814;2022-12-18T15:00:52;0.00;75.40
59505;DHT22;45321;53.200;5.814;2022-12-18T15:03:20;0.00;75.80
59505;DHT22;45321;53.200;5.814;2022-12-18T15:05:46;0.00;75.80
59505;DHT22;45321;53.200;5.814;2022-12-18T15:08:35;0.00;75.40
59505;DHT22;45321;53.200;5.814;2022-12-18T15:11:01;0.00;75.10
59505;DHT22;45321;53.200;5.814;2022-12-18T15:13:27;0.00;75.00
59505;DHT22;45321;53.200;5.814;2022-12-18T15:15:55;0.00;75.20
59505;DHT22;45321;53.200;5.814;2022-12-18T15:18:31;0.00;75.20
59505;DHT22;45321;53.200;5.814;2022-12-18T15:21:09;0.00;74.90
59505;DHT22;45321;53.200;5.814;2022-12-18T15:23:46;0.00;75.50
59505;DHT22;45321;53.200;5.814;2022-12-18T15:26:14;0.00;75.40
59505;DHT22;45321;53.200;5.814;2022-12-18T15:28:54;0.00;75.10
59505;DHT22;45321;53.200;5.814;2022-12-18T15:31:32;0.00;75.40
59505;DHT22;45321;53.200;5.814;2022-12-18T15:34:22;0.00;75.20
59505;DHT22;45321;53.200;5.814;2022-12-18T15:36:50;0.00;75.20
59505;DHT22;45321;53.200;5.814;2022-12-18T15:39:16;0.00;75.50
59505;DHT22;45321;53.200;5.814;2022-12-18T15:41:42;0.00;75.10
59505;DHT22;45321;53.200;5.814;2022-12-18T15:44:27;0.00;75.30
59505;DHT22;45321;53.200;5.814;2022-12-18T15:46:53;0.00;75.20
59505;DHT22;45321;53.200;5.814;2022-12-18T15:49:19;0.00;75.00
59505;DHT22;45321;53.200;5.814;2022-12-18T15:51:53;0.00;75.30
59505;DHT22;45321;53.200;5.814;2022-12-18T15:54:20;0.00;74.90
59505;DHT22;45321;53.200;5.814;2022-12-18T15:57:07;0.00;75.00
59505;DHT22;45321;53.200;5.814;2022-12-18T15:59:49;0.00;75.20
59505;DHT22;45321;53.200;5.814;2022-12-18T16:02:17;0.00;75.40
59505;DHT22;45321;53.200;5.814;2022-12-18T16:04:43;0.00;75.20
59505;DHT22;45321;53.200;5.814;2022-12-18T16:07:09;0.00;75.10
59505;DHT22;45321;53.200;5.814;2022-12-18T16:09:36;0.00;75.10
59505;DHT22;45321;53.200;5.814;2022-12-18T16:12:02;0.00;75.50
59505;DHT22;45321;53.200;5.814;2022-12-18T16:14:29;0.00;75.60
59505;DHT22;45321;53.200;5.814;2022-12-18T16:17:06;0.10;75.40
59505;DHT22;45321;53.200;5.814;2022-12-18T16:19:34;0.10;75.20
59505;DHT22;45321;53.200;5.814;2022-12-18T16:22:00;0.10;75.30
59505;DHT22;45321;53.200;5.814;2022-12-18T16:24:27;0.10;75.10
59505;DHT22;45321;53.200;5.814;2022-12-18T16:26:57;0.10;75.00
59505;DHT22;45321;53.200;5.814;2022-12-18T16:29:25;0.10;75.10
59505;DHT22;45321;53.200;5.814;2022-12-18T16:32:00;0.10;75.30
59505;DHT22;45321;53.200;5.814;2022-12-18T16:34:28;0.10;75.40
59505;DHT22;45321;53.200;5.814;2022-12-18T16:36:59;0.10;75.30
59505;DHT22;45321;53.200;5.814;2022-12-18T16:39:26;0.20;75.30
59505;DHT22;45321;53.200;5.814;2022-12-18T16:41:52;0.20;75.50
59505;DHT22;45321;53.200;5.814;2022-12-18T16:44:19;0.20;75.70
59505;DHT22;45321;53.200;5.814;2022-12-18T16:46:46;0.20;75.60
59505;DHT22;45321;53.200;5.814;2022-12-18T16:49:13;0.20;75.60
59505;DHT22;45321;53.200;5.814;2022-12-18T16:51:38;0.20;75.50
59505;DHT22;45321;53.200;5.814;2022-12-18T16:54:04;0.20;75.60
59505;DHT22;45321;53.200;5.814;2022-12-18T16:56:30;0.20;75.60
59505;DHT22;45321;53.200;5.814;2022-12-18T16:58:58;0.20;75.50
59505;DHT22;45321;53.200;5.814;2022-12-18T17:01:25;0.20;75.40
59505;DHT22;45321;53.200;5.814;2022-12-18T17:03:57;0.30;75.30
59505;DHT22;45321;53.200;5.814;2022-12-18T17:06:24;0.20;75.40
59505;DHT22;45321;53.200;5.814;2022-12-18T17:09:12;0.30;75.30
59505;DHT22;45321;53.200;5.814;2022-12-18T17:11:39;0.30;75.10
59505;DHT22;45321;53.200;5.814;2022-12-18T17:14:10;0.30;75.00
59505;DHT22;45321;53.200;5.814;2022-12-18T17:16:37;0.30;75.10
59505;DHT22;45321;53.200;5.814;2022-12-18T17:19:03;0.30;75.00
59505;DHT22;45321;53.200;5.814;2022-12-18T17:21:29;0.30;75.30
59505;DHT22;45321;53.200;5.814;2022-12-18T17:23:55;0.30;75.40